createdAt,value
2023-04-11T00:00:17.260Z,600.00
2023-04-11T00:01:17.259Z,603.00
2023-04-11T00:02:17.345Z,604.00
2023-04-11T00:03:17.374Z,605.00
2023-04-11T00:04:17.413Z,605.00
2023-04-11T00:05:17.296Z,604.00
2023-04-11T00:06:17.306Z,602.00
2023-04-11T00:07:17.306Z,601.00
2023-04-11T00:08:17.330Z,600.00
2023-04-11T00:09:17.304Z,602.00
2023-04-11T00:10:17.304Z,600.00
2023-04-11T00:11:17.304Z,600.00
2023-04-11T00:12:17.302Z,597.00
2023-04-11T00:13:17.290Z,597.00
2023-04-11T00:14:17.293Z,599.00
2023-04-11T00:15:17.301Z,598.00
2023-04-11T00:16:17.342Z,597.00
2023-04-11T00:17:17.340Z,597.00
2023-04-11T00:18:17.361Z,598.00
2023-04-11T00:19:17.385Z,599.00
2023-04-11T00:20:17.462Z,598.00
2023-04-11T00:21:17.409Z,599.00
2023-04-11T00:22:17.428Z,598.00
2023-04-11T00:23:17.446Z,596.00
2023-04-11T00:24:17.458Z,597.00
2023-04-11T00:25:17.464Z,596.00
2023-04-11T00:26:17.480Z,599.00
2023-04-11T00:27:17.969Z,600.00
2023-04-11T00:28:17.525Z,601.00
2023-04-11T00:29:17.526Z,599.00
2023-04-11T00:30:17.570Z,600.00
2023-04-11T00:31:17.615Z,599.00
2023-04-11T00:32:17.565Z,598.00
2023-04-11T00:33:17.561Z,597.00
2023-04-11T00:34:17.583Z,597.00
2023-04-11T00:35:17.580Z,600.00
2023-04-11T00:36:17.676Z,600.00
2023-04-11T00:37:17.607Z,601.00
2023-04-11T00:38:17.614Z,600.00
2023-04-11T00:39:17.608Z,601.00
2023-04-11T00:40:17.629Z,601.00
2023-04-11T00:41:17.616Z,601.00
2023-04-11T00:42:17.610Z,601.00
2023-04-11T00:43:17.607Z,600.00
2023-04-11T00:44:17.612Z,598.00
2023-04-11T00:45:17.625Z,600.00
2023-04-11T00:46:17.668Z,599.00
2023-04-11T00:47:17.604Z,601.00
2023-04-11T00:48:17.631Z,601.00
2023-04-11T00:49:17.637Z,601.00
2023-04-11T00:50:17.628Z,603.00
2023-04-11T00:51:17.611Z,602.00
2023-04-11T00:52:17.596Z,604.00
2023-04-11T00:53:17.564Z,603.00
2023-04-11T00:54:17.567Z,600.00
2023-04-11T00:55:17.589Z,599.00
2023-04-11T00:56:17.594Z,599.00
2023-04-11T00:57:17.602Z,599.00
2023-04-11T00:58:17.616Z,598.00
2023-04-11T00:59:17.626Z,599.00
2023-04-11T01:00:17.639Z,600.00
2023-04-11T01:01:17.670Z,601.00
2023-04-11T01:02:17.812Z,604.00
2023-04-11T01:03:17.953Z,605.00
2023-04-11T01:04:17.695Z,606.00
2023-04-11T01:05:17.687Z,607.00
2023-04-11T01:06:17.699Z,608.00
2023-04-11T01:07:17.722Z,609.00
2023-04-11T01:08:17.745Z,607.00
2023-04-11T01:09:17.766Z,608.00
2023-04-11T01:10:17.770Z,608.00
2023-04-11T01:11:17.790Z,609.00
2023-04-11T01:12:17.781Z,610.00
2023-04-11T01:13:17.784Z,610.00
2023-04-11T01:14:17.794Z,609.00
2023-04-11T01:15:17.836Z,605.00
2023-04-11T01:16:17.880Z,606.00
2023-04-11T01:17:17.871Z,606.00
2023-04-11T01:18:17.894Z,607.00
2023-04-11T01:19:17.909Z,607.00
2023-04-11T01:20:17.941Z,607.00
2023-04-11T01:21:17.956Z,608.00
2023-04-11T01:22:17.989Z,610.00
2023-04-11T01:23:18.005Z,608.00
2023-04-11T01:24:18.052Z,605.00
2023-04-11T01:25:18.060Z,606.00
2023-04-11T01:26:18.079Z,607.00
2023-04-11T01:27:18.108Z,608.00
2023-04-11T01:28:18.124Z,608.00
2023-04-11T01:29:18.136Z,611.00
2023-04-11T01:30:18.164Z,612.00
2023-04-11T01:31:18.229Z,612.00
2023-04-11T01:32:18.201Z,608.00
2023-04-11T01:33:18.218Z,609.00
2023-04-11T01:34:18.248Z,607.00
2023-04-11T01:35:18.260Z,604.00
2023-04-11T01:36:18.285Z,606.00
2023-04-11T01:37:18.308Z,609.00
2023-04-11T01:38:18.332Z,609.00
2023-04-11T01:39:18.513Z,609.00
2023-04-11T01:40:18.366Z,610.00
2023-04-11T01:41:18.380Z,608.00
2023-04-11T01:42:18.418Z,609.00
2023-04-11T01:43:18.438Z,609.00
2023-04-11T01:44:18.452Z,607.00
2023-04-11T01:45:18.459Z,608.00
2023-04-11T01:46:18.476Z,610.00
2023-04-11T01:47:18.510Z,608.00
2023-04-11T01:48:18.600Z,606.00
2023-04-11T01:49:18.554Z,607.00
2023-04-11T01:50:18.579Z,606.00
2023-04-11T01:51:18.603Z,607.00
2023-04-11T01:52:18.602Z,609.00
2023-04-11T01:53:18.628Z,607.00
2023-04-11T01:54:18.658Z,609.00
2023-04-11T01:55:18.673Z,608.00
2023-04-11T01:56:18.706Z,609.00
2023-04-11T01:57:18.717Z,609.00
2023-04-11T01:58:18.745Z,608.00
2023-04-11T01:59:18.730Z,606.00
2023-04-11T02:00:18.734Z,605.00
2023-04-11T02:01:18.783Z,606.00
2023-04-11T02:02:18.861Z,608.00
2023-04-11T02:03:18.891Z,609.00
2023-04-11T02:04:18.838Z,609.00
2023-04-11T02:05:18.794Z,611.00
2023-04-11T02:06:18.789Z,612.00
2023-04-11T02:07:18.805Z,611.00
2023-04-11T02:08:18.820Z,611.00
2023-04-11T02:09:18.825Z,610.00
2023-04-11T02:10:18.849Z,611.00
2023-04-11T02:11:18.873Z,611.00
2023-04-11T02:12:18.885Z,612.00
2023-04-11T02:13:18.915Z,613.00
2023-04-11T02:14:18.941Z,612.00
2023-04-11T02:15:18.955Z,612.00
2023-04-11T02:16:19.059Z,608.00
2023-04-11T02:17:19.015Z,608.00
2023-04-11T02:18:19.044Z,607.00
2023-04-11T02:19:19.068Z,607.00
2023-04-11T02:20:19.096Z,609.00
2023-04-11T02:21:19.125Z,609.00
2023-04-11T02:22:19.160Z,609.00
2023-04-11T02:23:19.180Z,606.00
2023-04-11T02:24:19.212Z,603.00
2023-04-11T02:25:19.246Z,603.00
2023-04-11T02:26:19.256Z,604.00
2023-04-11T02:27:19.290Z,604.00
2023-04-11T02:28:19.309Z,606.00
2023-04-11T02:29:19.365Z,606.00
2023-04-11T02:30:19.354Z,606.00
2023-04-11T02:31:19.455Z,605.00
2023-04-11T02:32:19.481Z,606.00
2023-04-11T02:33:19.449Z,604.00
2023-04-11T02:34:19.457Z,603.00
2023-04-11T02:35:19.467Z,604.00
2023-04-11T02:36:19.497Z,604.00
2023-04-11T02:37:19.508Z,604.00
2023-04-11T02:38:19.530Z,604.00
2023-04-11T02:39:19.570Z,604.00
2023-04-11T02:40:19.582Z,602.00
2023-04-11T02:41:19.593Z,605.00
2023-04-11T02:42:19.634Z,609.00
2023-04-11T02:43:19.659Z,610.00
2023-04-11T02:44:19.668Z,609.00
2023-04-11T02:45:19.717Z,611.00
2023-04-11T02:46:19.772Z,614.00
2023-04-11T02:47:19.776Z,613.00
2023-04-11T02:48:19.789Z,613.00
2023-04-11T02:49:19.823Z,612.00
2023-04-11T02:50:19.824Z,612.00
2023-04-11T02:51:19.846Z,612.00
2023-04-11T02:52:19.892Z,613.00
2023-04-11T02:53:19.904Z,612.00
2023-04-11T02:54:19.931Z,615.00
2023-04-11T02:55:19.962Z,613.00
2023-04-11T02:56:19.987Z,612.00
2023-04-11T02:57:20.011Z,613.00
2023-04-11T02:58:20.034Z,613.00
2023-04-11T02:59:20.063Z,615.00
2023-04-11T03:00:20.078Z,613.00
2023-04-11T03:01:20.096Z,615.00
2023-04-11T03:02:20.216Z,614.00
2023-04-11T03:03:20.329Z,615.00
2023-04-11T03:04:20.176Z,616.00
2023-04-11T03:05:20.244Z,616.00
2023-04-11T03:06:20.188Z,616.00
2023-04-11T03:07:20.198Z,614.00
2023-04-11T03:08:20.206Z,613.00
2023-04-11T03:09:20.232Z,616.00
2023-04-11T03:10:20.265Z,617.00
2023-04-11T03:11:20.277Z,617.00
2023-04-11T03:12:20.337Z,615.00
2023-04-11T03:13:20.324Z,613.00
2023-04-11T03:14:20.325Z,610.00
2023-04-11T03:15:20.341Z,610.00
2023-04-11T03:16:20.372Z,611.00
2023-04-11T03:17:20.402Z,609.00
2023-04-11T03:18:20.392Z,608.00
2023-04-11T03:19:20.451Z,610.00
2023-04-11T03:20:20.417Z,609.00
2023-04-11T03:21:20.433Z,608.00
2023-04-11T03:22:20.454Z,611.00
2023-04-11T03:23:20.466Z,610.00
2023-04-11T03:24:20.469Z,609.00
2023-04-11T03:25:20.474Z,611.00
2023-04-11T03:26:20.459Z,610.00
2023-04-11T03:27:20.442Z,610.00
2023-04-11T03:28:20.466Z,608.00
2023-04-11T03:29:20.465Z,606.00
2023-04-11T03:30:20.486Z,607.00
2023-04-11T03:31:20.519Z,609.00
2023-04-11T03:32:20.550Z,609.00
2023-04-11T03:33:20.548Z,609.00
2023-04-11T03:34:20.558Z,608.00
2023-04-11T03:35:20.667Z,611.00
2023-04-11T03:36:20.656Z,610.00
2023-04-11T03:37:20.627Z,607.00
2023-04-11T03:38:20.640Z,606.00
2023-04-11T03:39:20.669Z,606.00
2023-04-11T03:40:20.713Z,607.00
2023-04-11T03:41:20.735Z,608.00
2023-04-11T03:42:20.760Z,608.00
2023-04-11T03:43:20.790Z,608.00
2023-04-11T03:44:20.799Z,608.00
2023-04-11T03:45:20.829Z,608.00
2023-04-11T03:46:20.888Z,609.00
2023-04-11T03:47:20.875Z,608.00
2023-04-11T03:48:20.903Z,609.00
2023-04-11T03:49:20.941Z,607.00
2023-04-11T03:50:20.952Z,609.00
2023-04-11T03:51:20.970Z,611.00
2023-04-11T03:52:20.993Z,613.00
2023-04-11T03:53:21.022Z,612.00
2023-04-11T03:54:21.051Z,615.00
2023-04-11T03:55:21.078Z,613.00
2023-04-11T03:56:21.104Z,612.00
2023-04-11T03:57:21.104Z,610.00
2023-04-11T03:58:21.115Z,609.00
2023-04-11T03:59:21.161Z,610.00
2023-04-11T04:00:21.166Z,609.00
2023-04-11T04:01:21.190Z,610.00
2023-04-11T04:02:21.316Z,610.00
2023-04-11T04:03:21.316Z,611.00
2023-04-11T04:04:21.349Z,610.00
2023-04-11T04:05:21.270Z,609.00
2023-04-11T04:06:21.298Z,610.00
2023-04-11T04:07:21.303Z,608.00
2023-04-11T04:08:21.342Z,607.00
2023-04-11T04:09:21.358Z,608.00
2023-04-11T04:10:21.364Z,610.00
2023-04-11T04:11:21.406Z,613.00
2023-04-11T04:12:21.404Z,614.00
2023-04-11T04:13:21.413Z,613.00
2023-04-11T04:14:21.426Z,610.00
2023-04-11T04:15:21.530Z,612.00
2023-04-11T04:16:21.513Z,612.00
2023-04-11T04:17:21.481Z,613.00
2023-04-11T04:18:21.509Z,614.00
2023-04-11T04:19:21.512Z,616.00
2023-04-11T04:20:21.538Z,617.00
2023-04-11T04:21:21.550Z,618.00
2023-04-11T04:22:21.546Z,617.00
2023-04-11T04:23:21.574Z,617.00
2023-04-11T04:24:21.590Z,618.00
2023-04-11T04:25:24.578Z,619.00
2023-04-11T04:26:21.554Z,620.00
2023-04-11T04:27:21.525Z,621.00
2023-04-11T04:28:21.481Z,620.00
2023-04-11T04:29:21.431Z,618.00
2023-04-11T04:30:21.392Z,617.00
2023-04-11T04:31:21.372Z,617.00
2023-04-11T04:32:21.341Z,618.00
2023-04-11T04:33:21.258Z,618.00
2023-04-11T04:34:21.205Z,618.00
2023-04-11T04:35:21.166Z,617.00
2023-04-11T04:36:21.119Z,617.00
2023-04-11T04:37:21.070Z,617.00
2023-04-11T04:38:21.033Z,617.00
2023-04-11T04:39:20.979Z,620.00
2023-04-11T04:40:20.932Z,618.00
2023-04-11T04:41:20.894Z,617.00
2023-04-11T04:42:20.843Z,613.00
2023-04-11T04:43:20.807Z,616.00
2023-04-11T04:44:20.760Z,613.00
2023-04-11T04:45:20.720Z,610.00
2023-04-11T04:46:20.711Z,609.00
2023-04-11T04:47:20.671Z,612.00
2023-04-11T04:48:20.702Z,615.00
2023-04-11T04:49:20.689Z,618.00
2023-04-11T04:50:20.721Z,618.00
2023-04-11T04:51:20.739Z,618.00
2023-04-11T04:52:20.766Z,617.00
2023-04-11T04:53:20.804Z,615.00
2023-04-11T04:54:20.805Z,614.00
2023-04-11T04:55:20.816Z,613.00
2023-04-11T04:56:20.837Z,613.00
2023-04-11T04:57:20.856Z,614.00
2023-04-11T04:58:20.887Z,615.00
2023-04-11T04:59:20.893Z,614.00
2023-04-11T05:00:22.910Z,614.00
2023-04-11T05:01:20.952Z,615.00
2023-04-11T05:02:21.026Z,613.00
2023-04-11T05:03:21.071Z,612.00
2023-04-11T05:04:21.109Z,613.00
2023-04-11T05:05:20.997Z,613.00
2023-04-11T05:06:20.991Z,617.00
2023-04-11T05:07:21.021Z,619.00
2023-04-11T05:08:21.026Z,618.00
2023-04-11T05:09:21.053Z,620.00
2023-04-11T05:10:21.055Z,618.00
2023-04-11T05:11:21.070Z,620.00
2023-04-11T05:12:21.067Z,621.00
2023-04-11T05:13:21.086Z,631.00
2023-04-11T05:14:21.076Z,632.00
2023-04-11T05:15:21.092Z,629.00
2023-04-11T05:16:21.122Z,634.00
2023-04-11T05:17:22.197Z,645.00
2023-04-11T05:18:21.049Z,679.00
2023-04-11T05:19:21.004Z,693.00
2023-04-11T05:20:20.962Z,692.00
2023-04-11T05:21:20.930Z,693.00
2023-04-11T05:22:20.905Z,712.00
2023-04-11T05:23:20.843Z,713.00
2023-04-11T05:24:20.805Z,789.00
2023-04-11T05:25:20.756Z,856.00
2023-04-11T05:26:20.720Z,855.00
2023-04-11T05:27:22.273Z,880.00
2023-04-11T05:28:20.652Z,892.00
2023-04-11T05:29:21.258Z,881.00
2023-04-11T05:30:20.612Z,837.00
2023-04-11T05:31:22.334Z,840.00
2023-04-11T05:32:20.577Z,849.00
2023-04-11T05:33:20.493Z,853.00
2023-04-11T05:34:22.270Z,855.00
2023-04-11T05:35:21.252Z,859.00
2023-04-11T05:36:22.275Z,860.00
2023-04-11T05:37:21.177Z,859.00
2023-04-11T05:38:20.294Z,857.00
2023-04-11T05:39:21.821Z,854.00
2023-04-11T05:40:20.757Z,847.00
2023-04-11T05:41:20.160Z,817.00
2023-04-11T05:42:20.160Z,813.00
2023-04-11T05:43:20.091Z,809.00
2023-04-11T05:44:20.062Z,806.00
2023-04-11T05:45:20.106Z,806.00
2023-04-11T05:46:20.144Z,804.00
2023-04-11T05:47:20.082Z,802.00
2023-04-11T05:48:20.038Z,805.00
2023-04-11T05:49:20.050Z,802.00
2023-04-11T05:50:22.791Z,800.00
2023-04-11T05:51:19.885Z,799.00
2023-04-11T05:52:19.844Z,796.00
2023-04-11T05:53:19.796Z,792.00
2023-04-11T05:54:19.836Z,792.00
2023-04-11T05:55:19.727Z,789.00
2023-04-11T05:56:19.678Z,789.00
2023-04-11T05:57:19.626Z,790.00
2023-04-11T05:58:19.585Z,789.00
2023-04-11T05:59:25.062Z,796.00
2023-04-11T06:00:20.523Z,803.00
2023-04-11T06:01:19.447Z,806.00
2023-04-11T06:02:20.360Z,812.00
2023-04-11T06:03:19.470Z,821.00
2023-04-11T06:04:19.483Z,824.00
2023-04-11T06:05:19.349Z,825.00
2023-04-11T06:06:19.216Z,817.00
2023-04-11T06:07:19.174Z,795.00
2023-04-11T06:08:19.146Z,798.00
2023-04-11T06:09:19.295Z,796.00
2023-04-11T06:10:19.069Z,793.00
2023-04-11T06:11:19.770Z,788.00
2023-04-11T06:12:18.963Z,785.00
2023-04-11T06:13:18.932Z,781.00
2023-04-11T06:14:18.883Z,771.00
2023-04-11T06:15:18.839Z,765.00
2023-04-11T06:16:18.841Z,762.00
2023-04-11T06:17:18.834Z,761.00
2023-04-11T06:18:18.833Z,761.00
2023-04-11T06:19:18.872Z,761.00
2023-04-11T06:20:18.885Z,763.00
2023-04-11T06:21:18.904Z,762.00
2023-04-11T06:22:18.921Z,782.00
2023-04-11T06:23:22.275Z,831.00
2023-04-11T06:24:18.915Z,970.00
2023-04-11T06:25:19.780Z,998.00
2023-04-11T06:26:18.913Z,955.00
2023-04-11T06:27:18.819Z,969.00
2023-04-11T06:28:18.880Z,1045.00
2023-04-11T06:29:18.776Z,1029.00
2023-04-11T06:30:18.794Z,1025.00
2023-04-11T06:31:18.896Z,1024.00
2023-04-11T06:32:18.823Z,1027.00
2023-04-11T06:33:19.299Z,1023.00
2023-04-11T06:34:18.860Z,1004.00
2023-04-11T06:35:18.881Z,997.00
2023-04-11T06:36:18.974Z,993.00
2023-04-11T06:37:18.929Z,984.00
2023-04-11T06:38:18.955Z,916.00
2023-04-11T06:39:19.020Z,901.00
2023-04-11T06:40:19.014Z,884.00
2023-04-11T06:41:19.020Z,882.00
2023-04-11T06:42:19.055Z,885.00
2023-04-11T06:43:19.789Z,889.00
2023-04-11T06:44:19.077Z,890.00
2023-04-11T06:45:19.104Z,891.00
2023-04-11T06:46:19.149Z,891.00
2023-04-11T06:47:19.218Z,892.00
2023-04-11T06:48:19.168Z,889.00
2023-04-11T06:49:19.202Z,886.00
2023-04-11T06:50:19.157Z,886.00
2023-04-11T06:51:19.122Z,883.00
2023-04-11T06:52:25.851Z,878.00
2023-04-11T06:53:19.050Z,954.00
2023-04-11T06:54:18.996Z,942.00
2023-04-11T06:55:18.972Z,888.00
2023-04-11T06:56:18.919Z,848.00
2023-04-11T06:57:18.983Z,832.00
2023-04-11T06:58:18.953Z,815.00
2023-04-11T06:59:18.813Z,799.00
2023-04-11T07:00:18.778Z,793.00
2023-04-11T07:01:18.802Z,786.00
2023-04-11T07:02:18.903Z,780.00
2023-04-11T07:03:18.755Z,781.00
2023-04-11T07:04:19.747Z,782.00
2023-04-11T07:05:18.623Z,792.00
2023-04-11T07:06:18.564Z,832.00
2023-04-11T07:07:18.518Z,853.00
2023-04-11T07:08:18.497Z,858.00
2023-04-11T07:09:18.440Z,861.00
2023-04-11T07:10:18.401Z,858.00
2023-04-11T07:11:20.063Z,861.00
2023-04-11T07:12:18.311Z,863.00
2023-04-11T07:13:20.836Z,868.00
2023-04-11T07:14:20.324Z,875.00
2023-04-11T07:15:19.296Z,880.00
2023-04-11T07:16:18.492Z,884.00
2023-04-11T07:17:18.448Z,882.00
2023-04-11T07:18:18.473Z,879.00
2023-04-11T07:19:19.314Z,932.00
2023-04-11T07:20:18.418Z,964.00
2023-04-11T07:21:18.397Z,994.00
2023-04-11T07:22:18.376Z,1000.00
2023-04-11T07:23:18.362Z,1010.00
2023-04-11T07:24:18.444Z,1015.00
2023-04-11T07:25:18.367Z,1012.00
2023-04-11T07:26:18.363Z,1006.00
2023-04-11T07:27:18.369Z,1003.00
2023-04-11T07:28:18.378Z,1002.00
2023-04-11T07:29:18.393Z,988.00
2023-04-11T07:30:18.375Z,972.00
2023-04-11T07:31:18.418Z,964.00
2023-04-11T07:32:18.421Z,963.00
2023-04-11T07:33:18.407Z,967.00
2023-04-11T07:34:18.454Z,966.00
2023-04-11T07:35:18.441Z,966.00
2023-04-11T07:36:18.430Z,964.00
2023-04-11T07:37:18.435Z,960.00
2023-04-11T07:38:18.448Z,961.00
2023-04-11T07:39:18.481Z,963.00
2023-04-11T07:40:18.487Z,961.00
2023-04-11T07:41:18.527Z,959.00
2023-04-11T07:42:18.527Z,956.00
2023-04-11T07:43:18.560Z,955.00
2023-04-11T07:44:18.568Z,954.00
2023-04-11T07:45:18.584Z,953.00
2023-04-11T07:46:18.826Z,954.00
2023-04-11T07:47:18.629Z,959.00
2023-04-11T07:48:18.633Z,962.00
2023-04-11T07:49:18.659Z,964.00
2023-04-11T07:50:18.680Z,964.00
2023-04-11T07:51:18.700Z,963.00
2023-04-11T07:52:18.729Z,962.00
2023-04-11T07:53:18.731Z,960.00
2023-04-11T07:54:18.736Z,958.00
2023-04-11T07:55:18.764Z,954.00
2023-04-11T07:56:18.803Z,949.00
2023-04-11T07:57:18.805Z,946.00
2023-04-11T07:58:18.819Z,944.00
2023-04-11T07:59:18.847Z,943.00
2023-04-11T08:00:18.873Z,941.00
2023-04-11T08:01:18.900Z,939.00
2023-04-11T08:02:19.058Z,939.00
2023-04-11T08:03:19.050Z,938.00
2023-04-11T08:04:19.115Z,937.00
2023-04-11T08:05:19.025Z,938.00
2023-04-11T08:06:18.977Z,937.00
2023-04-11T08:07:18.989Z,936.00
2023-04-11T08:08:19.013Z,934.00
2023-04-11T08:09:19.018Z,937.00
2023-04-11T08:10:19.025Z,934.00
2023-04-11T08:11:19.058Z,939.00
2023-04-11T08:12:19.054Z,1014.00
2023-04-11T08:13:19.842Z,1141.00
2023-04-11T08:14:18.995Z,1249.00
2023-04-11T08:15:18.985Z,1186.00
2023-04-11T08:16:19.018Z,1164.00
2023-04-11T08:17:27.661Z,1161.00
2023-04-11T08:18:19.926Z,1241.00
2023-04-11T08:19:18.855Z,1381.00
2023-04-11T08:20:19.329Z,1440.00
2023-04-11T08:21:18.770Z,1335.00
2023-04-11T08:22:18.734Z,1360.00
2023-04-11T08:23:18.703Z,1459.00
2023-04-11T08:24:18.659Z,1379.00
2023-04-11T08:25:19.290Z,1386.00
2023-04-11T08:26:18.582Z,1438.00
2023-04-11T08:27:18.541Z,1465.00
2023-04-11T08:28:18.506Z,1408.00
2023-04-11T08:29:18.449Z,1427.00
2023-04-11T08:30:18.416Z,1426.00
2023-04-11T08:31:18.906Z,1266.00
2023-04-11T08:32:19.359Z,1256.00
2023-04-11T08:33:18.410Z,1333.00
2023-04-11T08:34:18.396Z,1337.00
2023-04-11T08:35:18.388Z,1354.00
2023-04-11T08:36:18.414Z,1348.00
2023-04-11T08:37:18.414Z,1331.00
2023-04-11T08:38:18.427Z,1303.00
2023-04-11T08:39:18.454Z,1290.00
2023-04-11T08:40:18.452Z,1290.00
2023-04-11T08:41:18.470Z,1291.00
2023-04-11T08:42:18.486Z,1288.00
2023-04-11T08:43:18.516Z,1265.00
2023-04-11T08:44:18.514Z,1257.00
2023-04-11T08:45:18.555Z,1255.00
2023-04-11T08:46:18.643Z,1254.00
2023-04-11T08:47:18.588Z,1202.00
2023-04-11T08:48:18.600Z,1188.00
2023-04-11T08:49:18.645Z,1183.00
2023-04-11T08:50:18.644Z,1178.00
2023-04-11T08:51:18.650Z,1186.00
2023-04-11T08:52:18.671Z,1182.00
2023-04-11T08:53:18.912Z,1176.00
2023-04-11T08:54:18.704Z,1168.00
2023-04-11T08:55:18.811Z,1156.00
2023-04-11T08:56:18.794Z,1144.00
2023-04-11T08:57:18.766Z,1171.00
2023-04-11T08:58:18.758Z,1209.00
2023-04-11T08:59:18.788Z,1219.00
2023-04-11T09:00:19.069Z,1223.00
2023-04-11T09:01:18.761Z,1224.00
2023-04-11T09:02:18.838Z,1222.00
2023-04-11T09:03:18.743Z,1215.00
2023-04-11T09:04:18.650Z,1177.00
2023-04-11T09:05:18.560Z,1149.00
2023-04-11T09:06:19.379Z,1149.00
2023-04-11T09:07:18.475Z,1175.00
2023-04-11T09:08:23.358Z,1190.00
2023-04-11T09:09:18.394Z,1195.00
2023-04-11T09:10:18.351Z,1186.00
2023-04-11T09:11:18.294Z,1173.00
2023-04-11T09:12:18.266Z,1171.00
2023-04-11T09:13:18.213Z,1169.00
2023-04-11T09:14:18.195Z,1170.00
2023-04-11T09:15:18.104Z,1169.00
2023-04-11T09:16:18.107Z,1263.00
2023-04-11T09:17:18.037Z,1267.00
2023-04-11T09:18:18.037Z,1268.00
2023-04-11T09:19:17.953Z,1262.00
2023-04-11T09:20:17.943Z,1267.00
2023-04-11T09:21:17.899Z,1277.00
2023-04-11T09:22:17.857Z,1308.00
2023-04-11T09:23:17.815Z,1357.00
2023-04-11T09:24:17.783Z,1364.00
2023-04-11T09:25:17.739Z,1366.00
2023-04-11T09:26:17.693Z,1366.00
2023-04-11T09:27:17.702Z,1362.00
2023-04-11T09:28:17.708Z,1357.00
2023-04-11T09:29:17.729Z,1350.00
2023-04-11T09:30:17.755Z,1345.00
2023-04-11T09:31:17.775Z,1339.00
2023-04-11T09:32:17.776Z,1267.00
2023-04-11T09:33:17.782Z,1161.00
2023-04-11T09:34:17.802Z,1035.00
2023-04-11T09:35:17.819Z,1022.00
2023-04-11T09:36:17.863Z,1050.00
2023-04-11T09:37:17.858Z,939.00
2023-04-11T09:38:17.870Z,920.00
2023-04-11T09:39:17.889Z,849.00
2023-04-11T09:40:17.900Z,846.00
2023-04-11T09:41:17.911Z,839.00
2023-04-11T09:42:17.877Z,838.00
2023-04-11T09:43:19.982Z,829.00
2023-04-11T09:44:18.039Z,821.00
2023-04-11T09:45:17.905Z,816.00
2023-04-11T09:46:17.933Z,812.00
2023-04-11T09:47:17.866Z,801.00
2023-04-11T09:48:17.851Z,794.00
2023-04-11T09:49:17.822Z,787.00
2023-04-11T09:50:17.809Z,782.00
2023-04-11T09:51:34.395Z,775.00
2023-04-11T09:52:18.742Z,773.00
2023-04-11T09:53:17.706Z,767.00
2023-04-11T09:54:17.684Z,765.00
2023-04-11T09:55:18.376Z,764.00
2023-04-11T09:56:17.700Z,761.00
2023-04-11T09:57:17.554Z,759.00
2023-04-11T09:58:17.506Z,753.00
2023-04-11T09:59:17.471Z,748.00
2023-04-11T10:00:17.436Z,746.00
2023-04-11T10:01:17.394Z,745.00
2023-04-11T10:02:17.494Z,751.00
2023-04-11T10:03:17.384Z,836.00
2023-04-11T10:04:17.297Z,878.00
2023-04-11T10:05:17.222Z,904.00
2023-04-11T10:06:17.191Z,912.00
2023-04-11T10:07:17.207Z,922.00
2023-04-11T10:08:17.139Z,932.00
2023-04-11T10:09:17.074Z,958.00
2023-04-11T10:10:17.004Z,950.00
2023-04-11T10:11:16.959Z,955.00
2023-04-11T10:12:16.932Z,969.00
2023-04-11T10:13:16.893Z,1001.00
2023-04-11T10:14:16.861Z,1014.00
2023-04-11T10:15:16.821Z,1020.00
2023-04-11T10:16:16.815Z,1022.00
2023-04-11T10:17:20.721Z,1022.00
2023-04-11T10:18:17.727Z,1025.00
2023-04-11T10:19:16.668Z,1025.00
2023-04-11T10:20:16.630Z,1030.00
2023-04-11T10:21:16.572Z,1031.00
2023-04-11T10:22:16.563Z,1033.00
2023-04-11T10:23:16.506Z,1033.00
2023-04-11T10:24:17.818Z,1030.00
2023-04-11T10:25:16.388Z,1026.00
2023-04-11T10:26:17.357Z,1023.00
2023-04-11T10:27:16.897Z,1026.00
2023-04-11T10:28:16.392Z,1029.00
2023-04-11T10:29:16.418Z,1033.00
2023-04-11T10:30:17.313Z,1035.00
2023-04-11T10:31:16.436Z,1034.00
2023-04-11T10:32:16.442Z,1035.00
2023-04-11T10:33:16.464Z,1035.00
2023-04-11T10:34:16.474Z,1032.00
2023-04-11T10:35:16.483Z,1030.00
2023-04-11T10:36:16.543Z,1027.00
2023-04-11T10:37:16.519Z,1020.00
2023-04-11T10:38:16.521Z,1015.00
2023-04-11T10:39:16.537Z,1016.00
2023-04-11T10:40:16.552Z,1018.00
2023-04-11T10:41:16.583Z,1020.00
2023-04-11T10:42:16.610Z,1024.00
2023-04-11T10:43:16.588Z,1023.00
2023-04-11T10:44:16.612Z,1023.00
2023-04-11T10:45:16.629Z,1025.00
2023-04-11T10:46:16.681Z,1022.00
2023-04-11T10:47:16.748Z,1021.00
2023-04-11T10:48:16.670Z,1021.00
2023-04-11T10:49:16.789Z,1021.00
2023-04-11T10:50:16.693Z,1016.00
2023-04-11T10:51:16.709Z,1017.00
2023-04-11T10:52:16.732Z,1022.00
2023-04-11T10:53:16.735Z,1022.00
2023-04-11T10:54:16.765Z,1022.00
2023-04-11T10:55:16.777Z,1023.00
2023-04-11T10:56:17.524Z,1021.00
2023-04-11T10:57:16.794Z,1018.00
2023-04-11T10:58:16.832Z,1018.00
2023-04-11T10:59:16.819Z,1020.00
2023-04-11T11:00:16.835Z,1020.00
2023-04-11T11:01:26.442Z,1017.00
2023-04-11T11:02:17.866Z,1019.00
2023-04-11T11:03:16.887Z,1034.00
2023-04-11T11:04:16.955Z,1040.00
2023-04-11T11:05:16.682Z,1042.00
2023-04-11T11:06:16.629Z,1103.00
2023-04-11T11:07:16.601Z,1125.00
2023-04-11T11:08:16.566Z,1136.00
2023-04-11T11:09:16.528Z,1154.00
2023-04-11T11:10:16.479Z,1151.00
2023-04-11T11:11:17.335Z,1161.00
2023-04-11T11:12:16.397Z,1180.00
2023-04-11T11:13:16.357Z,1186.00
2023-04-11T11:14:16.318Z,1191.00
2023-04-11T11:15:16.328Z,1197.00
2023-04-11T11:16:16.389Z,1196.00
2023-04-11T11:17:16.354Z,1179.00
2023-04-11T11:18:16.420Z,1183.00
2023-04-11T11:19:16.372Z,1198.00
2023-04-11T11:20:16.380Z,1205.00
2023-04-11T11:21:24.625Z,1211.00
2023-04-11T11:22:17.350Z,1222.00
2023-04-11T11:23:16.284Z,1215.00
2023-04-11T11:24:16.231Z,1213.00
2023-04-11T11:25:16.196Z,1189.00
2023-04-11T11:26:16.133Z,1197.00
2023-04-11T11:27:16.090Z,1199.00
2023-04-11T11:28:16.040Z,1207.00
2023-04-11T11:29:16.912Z,1218.00
2023-04-11T11:30:15.941Z,1274.00
2023-04-11T11:31:15.945Z,1297.00
2023-04-11T11:32:15.949Z,1277.00
2023-04-11T11:33:15.970Z,1272.00
2023-04-11T11:35:15.926Z,1271.00
2023-04-11T11:36:15.897Z,1274.00
2023-04-11T11:37:15.808Z,1282.00
2023-04-11T11:38:15.762Z,1286.00
2023-04-11T11:39:15.740Z,1286.00
2023-04-11T11:40:15.741Z,1292.00
2023-04-11T11:41:15.619Z,1293.00
2023-04-11T11:42:15.590Z,1303.00
2023-04-11T11:43:15.532Z,1310.00
2023-04-11T11:44:15.491Z,1312.00
2023-04-11T11:45:15.456Z,1316.00
2023-04-11T11:46:15.432Z,1316.00
2023-04-11T11:47:15.655Z,1322.00
2023-04-11T11:48:15.313Z,1310.00
2023-04-11T11:49:15.342Z,1284.00
2023-04-11T11:50:15.232Z,1290.00
2023-04-11T11:51:15.181Z,1281.00
2023-04-11T11:52:15.125Z,1280.00
2023-04-11T11:53:15.075Z,1280.00
2023-04-11T11:54:15.014Z,1280.00
2023-04-11T11:55:14.969Z,1284.00
2023-04-11T11:56:14.919Z,1296.00
2023-04-11T11:57:14.867Z,1302.00
2023-04-11T11:58:14.820Z,1309.00
2023-04-11T11:59:14.783Z,1323.00
2023-04-11T12:00:14.720Z,1332.00
2023-04-11T12:01:15.716Z,1350.00
2023-04-11T12:02:14.700Z,1363.00
2023-04-11T12:03:14.704Z,1371.00
2023-04-11T12:04:14.644Z,1386.00
2023-04-11T12:05:14.555Z,1387.00
2023-04-11T12:06:14.425Z,1388.00
2023-04-11T12:07:14.373Z,1387.00
2023-04-11T12:08:14.319Z,1367.00
2023-04-11T12:09:14.296Z,1364.00
2023-04-11T12:10:14.249Z,1366.00
2023-04-11T12:11:14.238Z,1364.00
2023-04-11T12:12:14.271Z,1338.00
2023-04-11T12:13:14.292Z,1310.00
2023-04-11T12:14:14.206Z,1317.00
2023-04-11T12:15:14.328Z,1315.00
2023-04-11T12:16:14.282Z,1323.00
2023-04-11T12:17:14.282Z,1343.00
2023-04-11T12:18:14.246Z,1371.00
2023-04-11T12:19:14.192Z,1394.00
2023-04-11T12:20:14.193Z,1401.00
2023-04-11T12:21:14.185Z,1405.00
2023-04-11T12:22:14.315Z,1403.00